TimePDT,TemperatureF,Dew PointF,Humidity,Sea Level PressureIn,VisibilityMPH,Wind Direction,Wind SpeedMPH,Gust SpeedMPH,PrecipitationIn,Events,Conditions,WindDirDegrees,DateUTC
12:56 AM,45.0,21.0,39,30.22,10.0,North,6.9,-,N/A,,Clear,350,2014-03-09 08:56:00
1:56 AM,41.0,21.9,47,30.22,10.0,NW,3.5,-,N/A,,Clear,320,2014-03-09 09:56:00
3:56 AM,41.0,23.0,49,30.22,10.0,NW,8.1,-,N/A,,Clear,310,2014-03-09 10:56:00
4:56 AM,42.1,25.0,51,30.22,10.0,WNW,4.6,-,N/A,,Clear,300,2014-03-09 11:56:00
5:56 AM,41.0,27.0,57,30.23,10.0,NW,5.8,-,N/A,,Clear,310,2014-03-09 12:56:00
6:56 AM,41.0,26.1,55,30.26,10.0,North,6.9,-,N/A,,Clear,360,2014-03-09 13:56:00
7:56 AM,44.1,25.0,47,30.26,10.0,Calm,Calm,-,N/A,,Clear,0,2014-03-09 14:56:00
8:56 AM,46.0,27.0,47,30.27,10.0,Calm,Calm,-,N/A,,Clear,0,2014-03-09 15:56:00
9:56 AM,48.9,26.1,41,30.27,10.0,WNW,5.8,-,N/A,,Clear,290,2014-03-09 16:56:00
10:56 AM,52.0,26.1,37,30.27,10.0,Calm,Calm,-,N/A,,Clear,0,2014-03-09 17:56:00
11:56 AM,55.0,21.9,28,30.27,10.0,Calm,Calm,-,N/A,,Clear,0,2014-03-09 18:56:00
12:56 PM,55.9,21.9,27,30.25,10.0,WNW,3.5,-,N/A,,Partly Cloudy,300,2014-03-09 19:56:00
1:56 PM,57.0,19.0,23,30.22,10.0,Calm,Calm,-,N/A,,Clear,0,2014-03-09 20:56:00
2:56 PM,57.9,19.0,22,30.19,10.0,NW,5.8,-,N/A,,Clear,320,2014-03-09 21:56:00
3:56 PM,59.0,18.0,20,30.17,10.0,North,5.8,-,N/A,,Clear,360,2014-03-09 22:56:00
4:56 PM,61.0,18.0,19,30.14,10.0,NNE,4.6,-,N/A,,Clear,30,2014-03-09 23:56:00
5:56 PM,60.1,19.0,20,30.13,10.0,NNE,5.8,-,N/A,,Clear,30,2014-03-10 00:56:00
6:56 PM,57.9,19.9,23,30.12,10.0,Calm,Calm,-,N/A,,Partly Cloudy,0,2014-03-10 01:56:00
7:56 PM,50.0,26.1,39,30.13,10.0,Calm,Calm,-,N/A,,Clear,0,2014-03-10 02:56:00
8:56 PM,48.9,25.0,39,30.14,10.0,NE,4.6,-,N/A,,Clear,40,2014-03-10 03:56:00
9:56 PM,48.9,26.1,41,30.14,10.0,West,4.6,-,N/A,,Clear,280,2014-03-10 04:56:00
10:56 PM,44.1,27.0,51,30.14,10.0,NNE,5.8,-,N/A,,Clear,20,2014-03-10 05:56:00
11:56 PM,41.0,27.0,57,30.12,10.0,NNW,4.6,-,N/A,,Clear,330,2014-03-10 06:56:00
12:56 AM,43.0,24.1,47,30.10,10.0,NNE,3.5,-,N/A,,Clear,30,2014-03-10 07:56:00